Time;durP1;ratioP1;P1;durP2;ratioP2;P2;SDS_P1;SDS_P2;PMS_P1;PMS_P2;Temp;Humidity;BMP_temperature;BMP_pressure;BME280_temperature;BME280_humidity;BME280_pressure;Samples;Min_cycle;Max_cycle;Signal;HPM_P1;HPM_P2
2023/05/16 00:03:48;;;;;;;2.60;2.40;;;14.90;99.90;;;;;;4940465;28;21437;-83
2023/05/16 00:07:31;;;;;;;4.83;2.43;;;14.90;99.90;;;;;;4837120;29;20466;-82
2023/05/16 00:11:35;;;;;;;2.80;2.20;;;14.90;99.90;;;;;;4851082;29;20466;-82
2023/05/16 00:14:49;;;;;;;2.70;2.20;;;14.80;99.90;;;;;;4847358;28;20455;-83
2023/05/16 00:18:28;;;;;;;3.27;2.33;;;14.90;99.90;;;;;;4957062;28;20481;-83
2023/05/16 00:22:16;;;;;;;;;;;;;;;;;;;;;
2023/05/16 00:26:06;;;;;;;3.73;2.30;;;14.90;99.90;;;;;;4983391;28;20571;-83
2023/05/16 00:29:46;;;;;;;2.53;2.20;;;14.80;99.90;;;;;;4900967;28;21649;-84
2023/05/16 00:45:23;;;;;;;2.47;2.30;;;14.60;99.90;;;;;;4926702;28;20501;-84
2023/05/16 00:49:04;;;;;;;2.90;2.30;;;14.70;99.90;;;;;;4919497;28;20497;-82
2023/05/16 00:56:07;;;;;;;4.27;3.87;;;14.70;99.90;;;;;;4990063;28;20549;-83
2023/05/16 01:06:37;;;;;;;5.90;5.17;;;14.60;99.90;;;;;;4977792;28;20454;-85
2023/05/16 01:10:00;;;;;;;7.27;5.77;;;14.60;99.90;;;;;;4968042;28;20548;-82
2023/05/16 01:13:41;;;;;;;;;;;;;;;;;;;;;
2023/05/16 01:17:39;;;;;;;;;;;;;;;;;;;;;
2023/05/16 01:25:09;;;;;;;9.27;5.97;;;14.50;99.90;;;;;;4894416;29;20487;-83
2023/05/16 01:32:03;;;;;;;8.47;6.13;;;14.40;99.90;;;;;;4774312;29;20479;-84
2023/05/16 01:35:17;;;;;;;7.60;6.50;;;14.40;99.90;;;;;;4770867;29;22439;-84
2023/05/16 01:51:08;;;;;;;7.53;6.73;;;14.30;99.90;;;;;;4817026;29;20572;-82
2023/05/16 01:58:48;;;;;;;;;;;;;;;;;;;;;
2023/05/16 02:02:03;;;;;;;10.90;7.77;;;14.10;99.90;;;;;;4796253;29;20523;-82
2023/05/16 02:13:39;;;;;;;;;;;;;;;;;;;;;
2023/05/16 02:24:54;;;;;;;12.57;8.57;;;13.70;99.90;;;;;;4832419;29;20486;-85
2023/05/16 02:31:49;;;;;;;;;;;;;;;;;;;;;
2023/05/16 02:35:31;;;;;;;4.20;3.30;;;13.60;99.90;;;;;;4768804;29;20595;-83
2023/05/16 02:39:02;;;;;;;5.60;2.93;;;13.40;99.90;;;;;;4758530;29;20597;-83
2023/05/16 02:42:55;;;;;;;3.10;2.80;;;13.60;99.90;;;;;;4776720;29;20557;-83
2023/05/16 02:46:04;;;;;;;2.83;2.13;;;13.40;99.90;;;;;;4735760;30;20473;-82
2023/05/16 02:49:30;;;;;;;5.83;2.60;;;13.30;99.90;;;;;;4732872;30;20537;-81
2023/05/16 02:53:01;;;;;;;4.77;2.10;;;13.10;99.90;;;;;;4797466;29;20494;-83
2023/05/16 03:04:58;;;;;;;4.80;2.27;;;13.10;99.90;;;;;;4844084;29;20678;-83
2023/05/16 03:16:21;;;;;;;4.57;2.37;;;13.10;99.90;;;;;;4853147;29;20460;-82
2023/05/16 03:24:00;;;;;;;;;;;;;;;;;;;;;
2023/05/16 03:28:03;;;;;;;4.43;3.20;;;13.00;99.90;;;;;;4901883;28;20486;-82
2023/05/16 03:35:44;;;;;;;10.00;3.33;;;12.90;99.90;;;;;;4834985;29;20508;-81
2023/05/16 03:43:16;;;;;;;7.30;3.17;;;12.80;99.90;;;;;;4789442;29;20524;-81
2023/05/16 03:46:40;;;;;;;8.43;5.40;;;12.80;99.90;;;;;;4831671;29;20442;-81
2023/05/16 04:02:25;;;;;;;;;;;;;;;;;;;;;
2023/05/16 04:13:22;;;;;;;;;;;;;;;;;;;;;
2023/05/16 04:23:45;;;;;;;5.40;3.00;;;12.60;99.90;;;;;;4784191;29;20483;-82
2023/05/16 04:27:18;;;;;;;7.50;3.40;;;12.80;99.90;;;;;;4788233;29;20483;-82
2023/05/16 04:30:40;;;;;;;10.43;3.67;;;12.70;99.90;;;;;;4782193;29;20495;-81
2023/05/16 04:34:48;;;;;;;;;;;;;;;;;;;;;
2023/05/16 04:38:42;;;;;;;9.03;3.00;;;12.70;99.90;;;;;;4696944;30;20485;-82
2023/05/16 04:41:57;;;;;;;4.50;3.00;;;12.70;98.60;;;;;;4695759;29;20520;-81
2023/05/16 04:45:38;;;;;;;8.60;3.27;;;12.70;99.80;;;;;;4759390;29;20742;-83
2023/05/16 04:56:49;;;;;;;6.00;1.90;;;12.50;99.80;;;;;;4821818;29;20449;-83
2023/05/16 05:00:00;;;;;;;5.87;1.90;;;12.50;99.30;;;;;;4816344;29;20486;-83
2023/05/16 05:03:10;;;;;;;;;;;;;;;;;;;;;
2023/05/16 05:10:01;;;;;;;;;;;;;;;;;;;;;
2023/05/16 05:17:14;;;;;;;;;;;;;;;;;;;;;
2023/05/16 05:19:53;;;;;;;;;;;;;;;;;;;;;
2023/05/16 05:30:44;;;;;;;9.77;2.13;;;12.30;98.30;;;;;;4802356;29;20558;-83
2023/05/16 05:34:01;;;;;;;4.00;1.27;;;12.60;97.40;;;;;;4787914;29;20524;-85
2023/05/16 05:37:25;;;;;;;6.70;1.33;;;12.50;97.50;;;;;;4844422;29;20540;-84
2023/05/16 05:41:11;;;;;;;5.07;1.17;;;12.50;97.80;;;;;;4831808;29;20471;-84
2023/05/16 05:44:58;;;;;;;;;;;;;;;;;;;;;
2023/05/16 05:48:16;;;;;;;;;;;;;;;;;;;;;
2023/05/16 05:55:42;;;;;;;5.73;1.53;;;12.70;97.00;;;;;;4749195;30;20431;-84
2023/05/16 06:03:08;;;;;;;5.90;1.40;;;13.00;95.60;;;;;;4696617;30;20507;-83
2023/05/16 06:05:54;;;;;;;6.87;1.00;;;12.90;96.30;;;;;;4660346;30;21325;-85
2023/05/16 06:09:54;;;;;;;6.33;1.83;;;12.90;95.60;;;;;;4664831;30;20479;-83
2023/05/16 06:17:19;;;;;;;6.33;1.30;;;12.70;95.60;;;;;;4694055;30;20560;-82
2023/05/16 06:20:35;;;;;;;3.57;1.40;;;12.70;95.40;;;;;;4699814;30;20551;-82
2023/05/16 06:23:37;;;;;;;6.77;1.60;;;12.70;95.60;;;;;;4684870;30;20506;-83
2023/05/16 06:26:51;;;;;;;4.07;1.30;;;12.80;95.40;;;;;;4688775;30;20487;-84
2023/05/16 06:30:04;;;;;;;3.37;1.20;;;13.20;94.70;;;;;;4716122;30;20571;-83
2023/05/16 06:37:02;;;;;;;;;;;;;;;;;;;;;
2023/05/16 06:39:58;;;;;;;13.00;1.83;;;13.20;94.30;;;;;;4787552;29;20451;-83
2023/05/16 06:43:02;;;;;;;6.13;1.37;;;13.30;93.50;;;;;;4818391;29;20644;-83
2023/05/16 06:45:56;;;;;;;7.60;1.40;;;13.30;93.10;;;;;;4823998;29;20529;-83
2023/05/16 06:49:23;;;;;;;6.13;1.90;;;13.40;92.70;;;;;;4846294;29;20467;-81
2023/05/16 06:52:59;;;;;;;3.93;1.20;;;13.20;92.20;;;;;;4899555;29;20480;-83
2023/05/16 06:56:30;;;;;;;8.50;1.40;;;13.20;92.90;;;;;;4909234;29;20451;-83
2023/05/16 07:00:13;;;;;;;2.93;1.20;;;13.70;91.00;;;;;;4915085;28;20460;-84
2023/05/16 07:03:02;;;;;;;4.30;1.10;;;13.50;91.30;;;;;;4929650;28;20489;-83
2023/05/16 07:05:41;;;;;;;2.33;0.73;;;13.50;91.50;;;;;;4915084;29;20465;-82
2023/05/16 07:08:38;;;;;;;;;;;;;;;;;;;;;
2023/05/16 07:12:03;;;;;;;3.97;1.00;;;13.60;90.40;;;;;;4921589;29;20462;-83
2023/05/16 07:15:19;;;;;;;4.47;1.30;;;13.60;90.20;;;;;;4901771;28;20466;-85
2023/05/16 07:18:02;;;;;;;3.80;1.50;;;13.50;90.00;;;;;;4931210;28;20541;-82
2023/05/16 07:21:30;;;;;;;2.60;1.20;;;13.40;90.20;;;;;;4917174;28;20455;-83
2023/05/16 07:24:26;;;;;;;2.43;1.17;;;13.20;90.60;;;;;;4912401;29;20501;-85
2023/05/16 07:27:46;;;;;;;7.20;1.20;;;13.60;90.30;;;;;;4855387;29;20500;-83
2023/05/16 07:30:30;;;;;;;4.37;1.27;;;13.60;90.00;;;;;;4853909;29;20465;-84
2023/05/16 07:33:34;;;;;;;3.60;1.20;;;13.90;89.90;;;;;;4839541;29;20507;-82
2023/05/16 07:46:13;;;;;;;1.80;0.90;;;14.60;82.90;;;;;;4869415;29;20493;-83
2023/05/16 07:49:23;;;;;;;;;;;;;;;;;;;;;
2023/05/16 07:52:28;;;;;;;1.77;0.70;;;14.90;80.20;;;;;;4860668;29;20456;-83
2023/05/16 07:55:56;;;;;;;2.03;1.00;;;14.60;79.40;;;;;;4860519;29;20996;-81
2023/05/16 07:59:06;;;;;;;2.97;1.17;;;14.40;79.90;;;;;;4845999;29;20533;-84
2023/05/16 08:02:21;;;;;;;2.13;1.17;;;14.70;79.20;;;;;;4847494;29;20543;-82
2023/05/16 08:05:18;;;;;;;4.77;1.30;;;14.40;78.20;;;;;;4856801;29;20485;-83
2023/05/16 08:08:45;;;;;;;3.60;1.87;;;14.40;79.20;;;;;;4864225;29;20793;-82
2023/05/16 08:11:45;;;;;;;3.20;1.00;;;15.00;76.20;;;;;;4849737;29;20457;-82
2023/05/16 08:14:52;;;;;;;2.40;0.90;;;14.90;76.30;;;;;;4851114;29;20492;-84
2023/05/16 08:17:46;;;;;;;;;;;;;;;;;;;;;
2023/05/16 08:20:50;;;;;;;4.40;1.60;;;16.60;70.80;;;;;;4856809;29;20484;-84
2023/05/16 08:24:09;;;;;;;2.97;1.23;;;18.80;65.30;;;;;;4852203;29;20509;-85
2023/05/16 08:33:44;;;;;;;3.30;1.60;;;21.10;52.50;;;;;;4862583;29;20483;-83
2023/05/16 08:37:00;;;;;;;1.80;1.43;;;19.60;54.30;;;;;;4860243;29;20570;-82
2023/05/16 08:40:44;;;;;;;4.03;2.13;;;17.80;57.60;;;;;;4908340;28;20557;-84
2023/05/16 08:44:11;;;;;;;;;;;;;;;;;;;;;
2023/05/16 08:47:39;;;;;;;;;;;;;;;;;;;;;
2023/05/16 08:51:03;;;;;;;8.37;2.23;;;16.30;65.00;;;;;;4905202;29;20483;-84
2023/05/16 08:54:52;;;;;;;4.10;1.40;;;17.70;59.10;;;;;;4864456;29;20456;-84
2023/05/16 08:57:39;;;;;;;4.70;1.70;;;19.00;58.30;;;;;;4846990;29;20465;-82
2023/05/16 09:01:01;;;;;;;5.13;2.13;;;20.70;55.10;;;;;;4854662;29;20981;-83
2023/05/16 09:04:08;;;;;;;3.70;1.80;;;21.80;52.30;;;;;;4861777;29;20751;-85
2023/05/16 09:07:39;;;;;;;2.90;1.47;;;22.50;51.10;;;;;;4846165;29;21783;-86
2023/05/16 09:11:17;;;;;;;;;;;;;;;;;;;;;
2023/05/16 09:14:35;;;;;;;3.50;1.10;;;25.70;42.00;;;;;;4859291;29;20571;-84
2023/05/16 09:29:02;;;;;;;2.00;1.10;;;18.80;47.90;;;;;;4896352;29;21059;-84
2023/05/16 09:32:47;;;;;;;2.30;1.40;;;18.70;50.20;;;;;;4873786;29;20451;-83
2023/05/16 09:35:53;;;;;;;1.80;1.27;;;20.50;48.00;;;;;;4863496;29;20466;-84
2023/05/16 09:38:44;;;;;;;2.73;1.10;;;20.60;46.80;;;;;;4874688;29;20565;-84
2023/05/16 09:42:11;;;;;;;2.00;1.40;;;19.50;47.40;;;;;;4885531;29;20635;-83
2023/05/16 09:45:32;;;;;;;3.07;1.30;;;18.60;49.90;;;;;;4887836;29;20455;-84
2023/05/16 09:48:27;;;;;;;5.20;1.57;;;18.10;51.10;;;;;;4880724;29;20460;-83
2023/05/16 09:51:51;;;;;;;2.43;2.00;;;19.10;52.20;;;;;;4866506;29;20605;-83
2023/05/16 09:55:13;;;;;;;2.30;1.40;;;20.10;49.20;;;;;;4863556;29;20460;-83
2023/05/16 09:59:03;;;;;;;2.53;1.50;;;20.30;48.30;;;;;;4854708;29;20578;-82
2023/05/16 10:06:04;;;;;;;4.17;1.50;;;20.70;47.10;;;;;;4916028;28;20464;-84
2023/05/16 10:13:43;;;;;;;3.90;1.27;;;19.40;48.70;;;;;;4957524;28;20484;-83
2023/05/16 10:17:50;;;;;;;2.40;1.20;;;19.40;49.40;;;;;;4947782;28;20470;-84
2023/05/16 10:21:02;;;;;;;2.80;1.50;;;20.30;47.30;;;;;;4953830;28;20439;-84
2023/05/16 10:30:40;;;;;;;2.23;1.57;;;23.70;41.60;;;;;;4968625;28;20467;-84
2023/05/16 10:37:14;;;;;;;3.53;1.70;;;23.60;41.60;;;;;;4887693;29;20467;-84
2023/05/16 10:40:44;;;;;;;2.27;1.20;;;24.30;40.30;;;;;;4882155;29;20498;-84
2023/05/16 10:43:32;;;;;;;2.47;1.13;;;24.60;39.10;;;;;;4854233;29;20513;-83
2023/05/16 10:46:53;;;;;;;1.87;0.90;;;25.10;37.00;;;;;;4865971;29;20499;-84
2023/05/16 10:49:56;;;;;;;3.07;1.30;;;24.80;37.20;;;;;;4815184;29;20513;-83
2023/05/16 10:52:41;;;;;;;2.00;1.10;;;23.80;36.70;;;;;;4882834;29;20582;-83
2023/05/16 10:56:04;;;;;;;1.13;0.80;;;23.30;37.90;;;;;;4890680;29;21452;-84
2023/05/16 10:59:53;;;;;;;2.70;1.20;;;23.60;37.50;;;;;;4898287;29;20470;-83
2023/05/16 11:06:56;;;;;;;1.50;1.10;;;21.90;39.30;;;;;;4782823;29;20492;-82
2023/05/16 11:09:42;;;;;;;1.40;1.30;;;20.70;40.70;;;;;;4820207;29;20468;-82
2023/05/16 11:12:15;;;;;;;4.50;1.50;;;20.00;42.80;;;;;;4827601;29;20993;-83
2023/05/16 11:15:41;;;;;;;;;;;;;;;;;;;;;
2023/05/16 11:19:22;;;;;;;;;;;;;;;;;;;;;
2023/05/16 11:26:31;;;;;;;4.17;1.57;;;20.10;44.60;;;;;;4912828;29;20461;-83
2023/05/16 11:30:08;;;;;;;1.50;1.20;;;21.40;43.00;;;;;;4917830;29;21023;-82
2023/05/16 11:33:16;;;;;;;1.87;1.33;;;21.50;42.50;;;;;;4906570;28;20830;-83
2023/05/16 11:39:54;;;;;;;2.83;1.10;;;21.80;42.30;;;;;;4997941;28;20450;-83
2023/05/16 11:47:26;;;;;;;2.90;1.20;;;21.20;43.20;;;;;;4938749;28;20456;-83
2023/05/16 11:50:48;;;;;;;3.50;1.33;;;20.50;44.20;;;;;;4981715;28;20475;-84
2023/05/16 11:54:22;;;;;;;6.10;1.53;;;20.00;45.60;;;;;;4942307;28;20475;-83
2023/05/16 12:01:41;;;;;;;4.07;1.37;;;19.50;47.60;;;;;;4993127;28;21054;-81
2023/05/16 12:04:27;;;;;;;2.07;1.40;;;19.20;47.00;;;;;;4949461;28;21032;-84
2023/05/16 12:07:16;;;;;;;6.23;1.80;;;19.10;48.00;;;;;;4959007;28;20546;-82
2023/05/16 12:10:19;;;;;;;2.30;1.37;;;19.00;48.70;;;;;;4959020;28;20911;-83
2023/05/16 12:13:37;;;;;;;2.50;1.50;;;19.30;48.80;;;;;;4980362;28;20479;-81
2023/05/16 12:17:25;;;;;;;3.33;1.00;;;19.70;48.00;;;;;;4963280;28;20723;-81
2023/05/16 12:24:16;;;;;;;1.13;0.87;;;20.20;45.40;;;;;;4935333;28;20494;-80
2023/05/16 12:27:04;;;;;;;4.40;1.13;;;19.70;46.80;;;;;;4921001;28;20673;-81
2023/05/16 12:30:07;;;;;;;;;;;;;;;;;;;;;
2023/05/16 12:33:38;;;;;;;;;;;;;;;;;;;;;
2023/05/16 12:36:46;;;;;;;4.57;0.90;;;21.50;44.20;;;;;;4966133;28;20473;-79
2023/05/16 12:40:04;;;;;;;;;;;;;;;;;;;;;
2023/05/16 12:43:12;;;;;;;4.83;1.00;;;21.00;45.10;;;;;;4929518;28;20494;-78
2023/05/16 12:46:43;;;;;;;1.93;0.90;;;21.20;44.80;;;;;;4927302;28;20458;-79
2023/05/16 12:49:54;;;;;;;1.13;0.70;;;21.10;43.90;;;;;;4915475;28;21113;-78
2023/05/16 12:53:10;;;;;;;;;;;;;;;;;;;;;
2023/05/16 12:56:42;;;;;;;5.30;1.83;;;20.30;45.00;;;;;;4933427;28;20544;-81
2023/05/16 12:59:18;;;;;;;1.37;0.80;;;20.20;46.00;;;;;;4916483;28;20544;-81
2023/05/16 13:02:32;;;;;;;3.63;0.90;;;20.10;47.90;;;;;;4957206;28;20665;-81
2023/05/16 13:05:53;;;;;;;;;;;;;;;;;;;;;
2023/05/16 13:09:22;;;;;;;1.43;1.03;;;20.10;47.90;;;;;;4972839;28;20458;-79
2023/05/16 13:12:34;;;;;;;3.27;1.30;;;20.50;48.70;;;;;;4944485;28;20465;-80
2023/05/16 13:15:38;;;;;;;2.13;1.07;;;21.10;46.90;;;;;;4958421;28;20462;-80
2023/05/16 13:18:45;;;;;;;1.70;1.07;;;21.50;46.00;;;;;;4957690;28;20628;-80
2023/05/16 13:22:43;;;;;;;1.00;0.60;;;21.10;46.40;;;;;;4963458;28;20772;-79
2023/05/16 13:25:48;;;;;;;1.57;0.97;;;21.30;46.10;;;;;;4931271;28;20504;-79
2023/05/16 13:28:55;;;;;;;1.23;0.70;;;22.00;45.90;;;;;;4962903;28;20462;-80
2023/05/16 13:32:14;;;;;;;1.93;1.20;;;21.90;44.20;;;;;;4969874;28;20475;-79
2023/05/16 13:39:03;;;;;;;2.57;0.80;;;21.70;44.70;;;;;;4880979;29;20502;-79
2023/05/16 13:46:14;;;;;;;1.70;0.63;;;22.00;42.50;;;;;;4846840;29;20910;-79
2023/05/16 13:49:30;;;;;;;2.53;0.80;;;21.30;42.90;;;;;;4876695;29;20470;-79
2023/05/16 13:59:31;;;;;;;2.67;0.97;;;20.80;42.10;;;;;;4794005;29;20471;-81
2023/05/16 14:06:14;;;;;;;1.23;0.73;;;20.30;42.00;;;;;;4834330;29;21795;-81
2023/05/16 14:09:43;;;;;;;2.67;1.67;;;20.00;41.20;;;;;;4865213;29;20470;-81
2023/05/16 14:15:55;;;;;;;1.17;0.57;;;19.90;40.90;;;;;;3183825;26;20497;-78
2023/05/16 14:19:30;;;;;;;0.80;0.73;;;19.60;41.30;;;;;;4956871;28;20466;-82
2023/05/16 14:23:02;;;;;;;0.43;0.43;;;19.90;41.40;;;;;;4840789;29;20468;-79
2023/05/16 14:29:38;;;;;;;0.73;0.60;;;20.10;41.40;;;;;;4860217;29;20509;-80
2023/05/16 14:39:03;;;;;;;;;;;;;;;;;;;;;
2023/05/16 14:42:30;;;;;;;0.90;0.70;;;20.30;39.90;;;;;;4983528;28;20452;-78
2023/05/16 14:45:21;;;;;;;1.40;1.03;;;19.90;40.50;;;;;;4999171;28;21277;-79
2023/05/16 14:48:33;;;;;;;;;;;;;;;;;;;;;
2023/05/16 14:52:03;;;;;;;;;;;;;;;;;;;;;
2023/05/16 14:59:27;;;;;;;1.20;1.03;;;19.50;43.10;;;;;;4927870;28;20565;-83
2023/05/16 15:03:06;;;;;;;1.23;1.13;;;19.40;43.90;;;;;;4920341;28;20492;-80
2023/05/16 15:06:29;;;;;;;1.93;0.90;;;19.20;44.00;;;;;;4864899;29;20429;-82
2023/05/16 15:17:08;;;;;;;1.30;0.73;;;19.20;44.20;;;;;;4999517;28;20458;-79
2023/05/16 15:23:36;;;;;;;1.87;1.10;;;19.10;45.30;;;;;;4988887;28;20513;-79
2023/05/16 15:26:58;;;;;;;2.17;1.50;;;19.00;46.10;;;;;;4915232;29;20473;-81
2023/05/16 15:30:41;;;;;;;1.53;1.20;;;19.10;46.50;;;;;;4905817;29;20459;-82
2023/05/16 15:34:27;;;;;;;1.30;1.13;;;18.90;46.00;;;;;;4915508;29;20497;-81
2023/05/16 15:37:56;;;;;;;;;;;;;;;;;;;;;
2023/05/16 15:41:44;;;;;;;1.60;1.00;;;18.90;46.60;;;;;;4866137;29;20546;-81
2023/05/16 15:45:04;;;;;;;2.40;1.10;;;18.90;46.70;;;;;;4851828;29;20493;-79
2023/05/16 15:48:50;;;;;;;1.00;0.90;;;18.90;46.90;;;;;;4856588;29;20480;-79
2023/05/16 15:52:38;;;;;;;2.00;1.13;;;19.20;46.30;;;;;;4846036;29;20544;-80
2023/05/16 15:55:25;;;;;;;1.70;1.00;;;18.80;45.70;;;;;;4821613;29;20463;-80
2023/05/16 15:58:22;;;;;;;1.90;1.10;;;18.50;46.30;;;;;;4828519;29;20477;-80
2023/05/16 16:01:32;;;;;;;1.87;1.27;;;18.40;46.90;;;;;;4845003;29;20517;-79
2023/05/16 16:04:37;;;;;;;2.83;1.50;;;18.60;46.90;;;;;;4874635;29;21246;-80
2023/05/16 16:07:32;;;;;;;3.30;2.10;;;18.90;46.60;;;;;;4940616;28;20464;-82
2023/05/16 16:10:47;;;;;;;1.87;1.70;;;18.70;46.50;;;;;;4922671;28;20547;-82
2023/05/16 16:17:59;;;;;;;2.77;1.40;;;18.90;46.50;;;;;;4892688;29;20466;-80
2023/05/16 16:21:17;;;;;;;3.53;1.43;;;18.80;46.10;;;;;;4882206;29;20463;-80
2023/05/16 16:28:38;;;;;;;1.70;1.43;;;18.40;46.80;;;;;;4851438;29;20524;-81
2023/05/16 16:31:33;;;;;;;2.47;1.33;;;18.30;47.20;;;;;;4857098;29;21201;-80
2023/05/16 16:34:39;;;;;;;2.73;1.23;;;18.40;47.90;;;;;;4907571;29;21890;-81
2023/05/16 16:38:05;;;;;;;;;;;;;;;;;;;;;
2023/05/16 16:41:21;;;;;;;2.87;1.80;;;18.20;48.20;;;;;;4911412;29;20442;-81
2023/05/16 16:44:51;;;;;;;;;;;;;;;;;;;;;
2023/05/16 16:47:49;;;;;;;2.13;1.40;;;18.50;48.30;;;;;;4910114;29;20643;-80
2023/05/16 16:51:24;;;;;;;1.83;1.60;;;18.40;48.60;;;;;;4917580;29;20698;-81
2023/05/16 16:54:14;;;;;;;4.67;1.50;;;18.20;49.40;;;;;;4876074;29;20474;-80
2023/05/16 16:57:18;;;;;;;2.10;1.40;;;18.20;49.40;;;;;;4854563;29;20473;-82
2023/05/16 17:04:10;;;;;;;;;;;;;;;;;;;;;
2023/05/16 17:07:00;;;;;;;2.10;1.30;;;17.80;50.50;;;;;;4920563;28;21332;-81
2023/05/16 17:09:47;;;;;;;2.83;1.20;;;17.80;50.80;;;;;;4913052;28;20465;-81
2023/05/16 17:12:54;;;;;;;1.43;1.00;;;17.60;50.90;;;;;;4916566;28;20494;-81
2023/05/16 17:19:54;;;;;;;3.57;1.07;;;17.50;51.90;;;;;;4893473;29;20641;-81
2023/05/16 17:22:51;;;;;;;;;;;;;;;;;;;;;
2023/05/16 17:29:01;;;;;;;5.00;1.47;;;17.20;53.60;;;;;;4865163;29;20566;-80
2023/05/16 17:35:19;;;;;;;2.83;1.20;;;17.20;53.80;;;;;;4899908;28;20464;-81
2023/05/16 17:38:29;;;;;;;3.60;1.47;;;17.20;53.90;;;;;;4931943;28;20568;-82
2023/05/16 17:41:35;;;;;;;1.40;1.07;;;17.20;53.70;;;;;;4923408;28;20477;-80
2023/05/16 17:45:03;;;;;;;2.50;1.50;;;17.40;53.70;;;;;;4919694;28;21355;-81
2023/05/16 17:47:53;;;;;;;3.87;1.67;;;17.00;53.40;;;;;;4930874;28;20456;-80
2023/05/16 17:51:23;;;;;;;2.83;1.70;;;16.90;53.80;;;;;;4887084;29;20489;-80
2023/05/16 17:54:36;;;;;;;3.33;1.40;;;17.10;53.70;;;;;;4884946;29;20493;-80
2023/05/16 17:58:05;;;;;;;3.10;2.23;;;17.10;53.40;;;;;;4917254;28;20481;-80
2023/05/16 18:01:27;;;;;;;4.60;1.37;;;16.90;53.40;;;;;;4916823;28;20552;-81
2023/05/16 18:04:38;;;;;;;2.30;1.23;;;16.90;54.10;;;;;;4850999;29;20492;-82
2023/05/16 18:07:36;;;;;;;2.77;1.77;;;16.80;53.90;;;;;;4840538;29;20460;-81
2023/05/16 18:11:15;;;;;;;2.40;1.40;;;17.00;53.90;;;;;;4836943;29;20473;-82
2023/05/16 18:22:11;;;;;;;2.57;2.07;;;16.60;54.70;;;;;;4801378;29;21166;-81
2023/05/16 18:25:35;;;;;;;;;;;;;;;;;;;;;
2023/05/16 18:29:02;;;;;;;3.30;1.20;;;16.70;55.10;;;;;;4764396;29;20475;-80
2023/05/16 18:41:11;;;;;;;5.33;2.40;;;16.50;56.10;;;;;;4728847;29;20467;-81
2023/05/16 18:44:02;;;;;;;3.90;2.30;;;16.50;56.60;;;;;;4764260;29;20502;-78
2023/05/16 18:47:20;;;;;;;3.63;2.33;;;16.40;56.50;;;;;;4795155;29;20474;-82
2023/05/16 18:50:20;;;;;;;4.13;2.73;;;16.50;56.80;;;;;;4792875;29;20718;-82
2023/05/16 18:53:40;;;;;;;3.03;1.97;;;16.70;56.80;;;;;;4859141;29;20491;-80
2023/05/16 19:01:30;;;;;;;30.93;27.67;;;16.60;56.80;;;;;;4852378;29;20902;-81
2023/05/16 19:08:10;;;;;;;1.50;1.00;;;16.20;58.10;;;;;;4896445;29;20477;-79
2023/05/16 19:11:06;;;;;;;2.80;1.10;;;16.10;58.00;;;;;;4905003;29;20466;-80
2023/05/16 19:14:48;;;;;;;1.60;1.00;;;16.10;58.00;;;;;;4963443;28;20476;-80
2023/05/16 19:18:56;;;;;;;;;;;;;;;;;;;;;
2023/05/16 19:21:50;;;;;;;1.67;1.40;;;16.10;58.30;;;;;;5017304;28;20465;-81
2023/05/16 19:24:43;;;;;;;4.90;1.20;;;16.10;58.20;;;;;;4993374;28;20548;-82
2023/05/16 19:31:06;;;;;;;2.30;0.97;;;16.20;58.20;;;;;;4982902;28;20469;-79
2023/05/16 19:34:31;;;;;;;1.90;1.03;;;16.10;58.30;;;;;;4962775;22;20513;-81
2023/05/16 19:38:24;;;;;;;2.07;1.27;;;16.00;58.50;;;;;;4963232;28;20477;-79
2023/05/16 19:41:58;;;;;;;1.43;1.03;;;16.10;58.50;;;;;;4962195;28;20474;-82
2023/05/16 19:57:54;;;;;;;;;;;;;;;;;;;;;
2023/05/16 20:01:15;;;;;;;1.93;1.33;;;16.00;59.10;;;;;;4875644;29;20526;-80
2023/05/16 20:11:44;;;;;;;2.07;1.20;;;15.90;60.10;;;;;;4900375;29;20518;-81
2023/05/16 20:15:03;;;;;;;3.50;1.60;;;15.80;60.30;;;;;;4894874;29;20876;-80
2023/05/16 20:18:22;;;;;;;1.67;0.90;;;15.90;60.70;;;;;;4893776;29;20463;-80
2023/05/16 20:21:43;;;;;;;1.47;0.93;;;15.90;61.00;;;;;;4834070;29;20463;-80
2023/05/16 20:25:05;;;;;;;3.60;1.37;;;15.90;61.00;;;;;;4830214;29;20493;-81
2023/05/16 20:28:50;;;;;;;2.23;1.70;;;15.90;61.20;;;;;;4811208;29;20486;-80
2023/05/16 20:32:08;;;;;;;4.00;0.97;;;16.00;60.90;;;;;;4853049;29;20585;-82
2023/05/16 20:35:26;;;;;;;2.63;1.30;;;15.90;61.30;;;;;;4840417;29;20485;-81
2023/05/16 20:42:25;;;;;;;;;;;;;;;;;;;;;
2023/05/16 20:46:04;;;;;;;4.47;1.60;;;15.80;61.70;;;;;;4873912;29;20562;-81
2023/05/16 20:49:04;;;;;;;2.97;0.97;;;15.70;62.30;;;;;;4865010;29;20573;-81
2023/05/16 20:52:09;;;;;;;2.07;1.20;;;15.60;62.80;;;;;;4803628;29;20462;-80
2023/05/16 20:55:22;;;;;;;4.10;1.33;;;15.50;64.00;;;;;;4816862;29;20590;-81
2023/05/16 20:58:46;;;;;;;2.73;1.13;;;15.60;63.60;;;;;;4819364;29;20461;-80
2023/05/16 21:02:09;;;;;;;;;;;;;;;;;;;;;
2023/05/16 21:05:34;;;;;;;2.10;1.00;;;15.40;64.50;;;;;;4823260;29;20498;-81
2023/05/16 21:09:17;;;;;;;3.70;0.93;;;15.40;65.00;;;;;;4814651;29;20473;-80
2023/05/16 21:12:54;;;;;;;1.03;0.87;;;15.50;65.40;;;;;;4840793;29;20449;-81
2023/05/16 21:15:51;;;;;;;3.87;1.37;;;15.60;65.40;;;;;;4801181;29;20489;-81
2023/05/16 21:19:55;;;;;;;2.97;1.30;;;15.70;65.50;;;;;;4790734;29;20506;-82
2023/05/16 21:23:13;;;;;;;3.13;1.03;;;15.50;65.30;;;;;;4797907;29;20449;-80
2023/05/16 21:26:26;;;;;;;2.23;1.30;;;15.50;66.40;;;;;;4811542;29;20504;-81
2023/05/16 21:37:20;;;;;;;6.20;1.00;;;15.40;67.10;;;;;;4873829;29;21143;-80
2023/05/16 21:40:24;;;;;;;2.00;1.23;;;15.20;67.50;;;;;;4877215;29;20467;-79
2023/05/16 21:50:42;;;;;;;2.23;1.07;;;14.90;69.70;;;;;;4977330;28;20714;-82
2023/05/16 22:05:37;;;;;;;1.20;1.07;;;15.00;71.60;;;;;;4896339;28;20928;-79
2023/05/16 22:09:15;;;;;;;2.60;1.07;;;14.90;71.90;;;;;;4958139;28;20459;-80
2023/05/16 22:12:49;;;;;;;1.60;1.00;;;14.80;72.20;;;;;;4963614;28;20465;-79
2023/05/16 22:15:54;;;;;;;2.67;1.27;;;14.80;72.90;;;;;;4983912;28;20443;-80
2023/05/16 22:19:40;;;;;;;2.50;1.20;;;14.90;73.20;;;;;;4986826;28;20970;-81
2023/05/16 22:23:21;;;;;;;1.40;1.30;;;14.90;73.10;;;;;;4947518;28;20466;-81
2023/05/16 22:27:04;;;;;;;2.70;1.17;;;14.90;73.40;;;;;;4931002;29;20582;-79
2023/05/16 22:30:39;;;;;;;3.00;1.20;;;14.80;73.90;;;;;;4917533;29;20462;-78
2023/05/16 22:34:33;;;;;;;3.67;0.97;;;14.80;73.60;;;;;;4905354;29;20488;-80
2023/05/16 22:38:10;;;;;;;3.27;1.33;;;14.70;74.60;;;;;;4871127;29;20497;-82
2023/05/16 22:41:50;;;;;;;2.37;1.20;;;14.60;75.50;;;;;;4924827;29;20465;-79
2023/05/16 22:45:02;;;;;;;3.53;1.50;;;14.60;75.60;;;;;;4951452;28;20493;-78
2023/05/16 22:48:03;;;;;;;3.33;1.27;;;14.60;76.20;;;;;;4912916;29;20457;-79
2023/05/16 22:51:05;;;;;;;1.87;1.33;;;14.50;76.60;;;;;;4911900;29;20465;-79
2023/05/16 22:54:41;;;;;;;;;;;;;;;;;;;;;
2023/05/16 23:01:11;;;;;;;3.37;0.80;;;14.40;77.40;;;;;;4905261;29;21238;-81
2023/05/16 23:04:06;;;;;;;2.43;1.00;;;14.30;78.40;;;;;;4903163;29;20492;-80
2023/05/16 23:07:38;;;;;;;3.70;1.53;;;14.20;79.10;;;;;;4885642;29;20465;-82
2023/05/16 23:11:10;;;;;;;4.73;1.10;;;14.10;79.70;;;;;;4861071;29;20506;-81
2023/05/16 23:14:03;;;;;;;1.30;1.20;;;14.10;80.60;;;;;;4904174;29;20569;-82
2023/05/16 23:20:03;;;;;;;1.90;1.20;;;14.10;81.10;;;;;;4917735;29;21153;-81
2023/05/16 23:23:26;;;;;;;1.83;1.43;;;14.20;81.40;;;;;;4919796;29;20487;-80
2023/05/16 23:26:31;;;;;;;3.37;1.30;;;14.10;81.50;;;;;;4910575;29;20456;-81
2023/05/16 23:29:33;;;;;;;1.77;1.30;;;14.00;82.30;;;;;;4884305;29;20462;-81
2023/05/16 23:33:14;;;;;;;2.70;1.20;;;14.00;83.00;;;;;;4823586;29;20489;-78
2023/05/16 23:39:35;;;;;;;;;;;;;;;;;;;;;
2023/05/16 23:42:32;;;;;;;2.63;1.40;;;13.90;83.70;;;;;;4886729;29;20467;-80
2023/05/16 23:45:28;;;;;;;;;;;;;;;;;;;;;
2023/05/16 23:48:42;;;;;;;;;;;;;;;;;;;;;
2023/05/16 23:51:42;;;;;;;1.90;1.40;;;14.00;84.60;;;;;;4918651;29;20488;-81
2023/05/16 23:54:59;;;;;;;2.60;1.50;;;13.90;84.30;;;;;;4896235;29;20454;-82
2023/05/16 23:57:51;;;;;;;;;;;;;;;;;;;;;
